createdAt,value
2019-04-22T00:01:40.479Z,72.40
2019-04-22T00:04:30.227Z,72.00
2019-04-22T00:07:09.783Z,71.90
2019-04-22T00:09:48.138Z,71.70
2019-04-22T00:12:19.508Z,71.80
2019-04-22T00:14:42.522Z,71.70
2019-04-22T00:17:24.790Z,71.70
2019-04-22T00:20:02.493Z,71.20
2019-04-22T00:22:44.877Z,70.90
2019-04-22T00:25:01.384Z,71.20
2019-04-22T00:27:33.925Z,72.00
2019-04-22T00:32:30.462Z,70.90
2019-04-22T00:34:59.913Z,70.30
2019-04-22T00:37:35.739Z,70.80
2019-04-22T00:40:07.202Z,70.40
2019-04-22T00:42:41.358Z,69.90
2019-04-22T00:45:11.862Z,69.50
2019-04-22T00:47:39.952Z,69.40
2019-04-22T00:52:49.284Z,69.90
2019-04-22T00:55:23.117Z,69.80
2019-04-22T00:57:49.832Z,69.80
2019-04-22T01:00:17.646Z,70.60
2019-04-22T01:02:57.363Z,71.50
2019-04-22T01:05:21.727Z,71.50
2019-04-22T01:07:51.448Z,72.20
2019-04-22T01:10:27.486Z,72.40
2019-04-22T01:12:56.956Z,73.00
2019-04-22T01:15:30.503Z,72.80
2019-04-22T01:18:00.278Z,72.30
2019-04-22T01:20:54.519Z,72.60
2019-04-22T01:23:08.122Z,73.70
2019-04-22T01:25:34.502Z,72.00
2019-04-22T01:27:57.241Z,72.30
2019-04-22T01:30:24.406Z,72.00
2019-04-22T01:32:49.363Z,71.70
2019-04-22T01:35:28.632Z,71.20
2019-04-22T01:38:06.530Z,72.80
2019-04-22T01:40:45.531Z,72.30
2019-04-22T01:43:16.570Z,72.50
2019-04-22T01:45:50.670Z,72.90
2019-04-22T01:48:17.665Z,73.40
2019-04-22T01:50:50.189Z,74.90
2019-04-22T01:53:27.475Z,75.80
2019-04-22T01:55:59.087Z,75.10
2019-04-22T01:58:23.814Z,75.10
2019-04-22T02:01:18.557Z,75.60
2019-04-22T02:03:33.234Z,76.80
2019-04-22T02:06:02.431Z,76.10
2019-04-22T02:08:42.681Z,75.90
2019-04-22T02:11:00.965Z,76.40
2019-04-22T02:13:36.625Z,76.60
2019-04-22T02:16:05.683Z,76.80
2019-04-22T02:18:38.168Z,76.70
2019-04-22T02:21:08.958Z,77.20
2019-04-22T02:23:47.317Z,77.50
2019-04-22T02:26:32.603Z,78.00
2019-04-22T02:28:58.215Z,79.00
2019-04-22T02:31:25.584Z,79.20
2019-04-22T02:36:34.102Z,79.30
2019-04-22T02:41:26.325Z,80.00
2019-04-22T02:49:18.758Z,81.90
2019-04-22T02:51:36.567Z,82.80
2019-04-22T03:01:43.145Z,85.00
2019-04-22T03:04:12.921Z,85.10
2019-04-22T03:11:52.554Z,86.80
2019-04-22T03:14:16.405Z,87.00
2019-04-22T03:19:25.450Z,87.60
2019-04-22T03:21:48.125Z,88.90
2019-04-22T03:30:02.809Z,89.80
2019-04-22T03:32:40.319Z,90.00
2019-04-22T03:35:24.631Z,90.70
2019-04-22T03:42:15.575Z,91.30
2019-04-22T03:47:31.917Z,91.60
2019-04-22T03:52:20.412Z,91.50
2019-04-22T03:55:03.212Z,91.40
2019-04-22T04:00:08.319Z,91.40
2019-04-22T04:02:39.404Z,91.60
2019-04-22T04:04:58.757Z,91.50
2019-04-22T04:07:47.519Z,91.40
2019-04-22T04:15:28.428Z,91.50
2019-04-22T04:17:50.150Z,90.90
2019-04-22T04:20:26.266Z,90.90
2019-04-22T04:25:29.356Z,90.80
2019-04-22T04:28:22.945Z,90.70
2019-04-22T04:32:52.617Z,90.80
2019-04-22T04:35:46.183Z,90.70
2019-04-22T04:38:19.094Z,90.60
2019-04-22T04:42:58.470Z,90.50
2019-04-22T04:48:00.447Z,90.00
2019-04-22T04:50:39.942Z,89.90
2019-04-22T04:53:12.837Z,89.50
2019-04-22T04:55:35.141Z,89.90
2019-04-22T05:03:21.690Z,89.60
2019-04-22T05:06:01.345Z,89.30
2019-04-22T05:08:54.526Z,89.10
2019-04-22T05:13:43.159Z,88.50
2019-04-22T05:16:17.182Z,87.90
2019-04-22T05:18:37.417Z,87.30
2019-04-22T05:21:16.370Z,87.50
2019-04-22T05:23:41.946Z,87.30
2019-04-22T05:26:10.739Z,87.30
2019-04-22T05:28:35.103Z,87.00
2019-04-22T05:31:09.783Z,87.80
2019-04-22T05:33:42.572Z,88.20
2019-04-22T05:36:13.073Z,87.80
2019-04-22T05:38:49.307Z,87.30
2019-04-22T05:41:10.198Z,87.00
2019-04-22T05:43:42.639Z,86.70
2019-04-22T05:46:20.483Z,86.40
2019-04-22T05:48:43.975Z,86.00
2019-04-22T05:51:18.058Z,84.50
2019-04-22T05:53:48.212Z,83.30
2019-04-22T05:56:26.754Z,82.10
2019-04-22T05:58:58.816Z,81.80
2019-04-22T06:03:59.924Z,79.90
2019-04-22T06:06:33.982Z,80.00
2019-04-22T06:11:29.536Z,77.80
2019-04-22T06:14:02.626Z,78.40
2019-04-22T06:16:38.658Z,76.70
2019-04-22T06:19:07.443Z,76.60
2019-04-22T06:21:38.333Z,75.90
2019-04-22T06:24:18.510Z,76.50
2019-04-22T06:29:15.280Z,74.10
2019-04-22T06:32:13.271Z,74.80
2019-04-22T06:34:17.706Z,75.80
2019-04-22T06:36:55.438Z,75.60
2019-04-22T06:39:26.134Z,75.60
2019-04-22T06:44:23.825Z,74.90
2019-04-22T06:46:52.267Z,73.20
2019-04-22T06:52:04.210Z,71.60
2019-04-22T06:54:27.952Z,71.70
2019-04-22T06:56:59.715Z,70.20
2019-04-22T06:59:33.030Z,68.30
2019-04-22T07:02:06.450Z,68.90
2019-04-22T07:04:38.249Z,69.00
2019-04-22T07:07:08.329Z,66.90
2019-04-22T07:12:11.958Z,67.20
2019-04-22T07:14:45.912Z,66.50
2019-04-22T07:17:09.690Z,67.40
2019-04-22T07:19:45.412Z,66.60
2019-04-22T07:22:16.302Z,66.90
2019-04-22T07:24:46.317Z,66.90
2019-04-22T07:27:14.676Z,64.50
2019-04-22T07:29:58.138Z,65.20
2019-04-22T07:32:20.631Z,66.00
2019-04-22T07:35:01.032Z,63.50
2019-04-22T07:37:38.872Z,63.20
2019-04-22T07:39:56.603Z,63.40
2019-04-22T07:42:31.059Z,64.40
2019-04-22T07:45:03.871Z,65.10
2019-04-22T07:50:08.393Z,66.70
2019-04-22T07:52:35.135Z,66.20
2019-04-22T07:55:01.026Z,67.10
2019-04-22T07:57:41.356Z,67.20
2019-04-22T08:02:44.131Z,67.20
2019-04-22T08:05:22.812Z,65.50
2019-04-22T08:07:46.785Z,65.40
2019-04-22T08:10:24.335Z,64.20
2019-04-22T08:13:05.677Z,64.90
2019-04-22T08:15:20.093Z,65.80
2019-04-22T08:18:01.624Z,64.20
2019-04-22T08:20:22.661Z,64.90
2019-04-22T08:22:57.607Z,66.10
2019-04-22T08:25:27.097Z,65.10
2019-04-22T08:27:57.105Z,64.60
2019-04-22T08:33:04.410Z,66.00
2019-04-22T08:35:40.863Z,64.50
2019-04-22T08:38:01.475Z,64.80
2019-04-22T08:40:39.849Z,64.30
2019-04-22T08:43:14.074Z,65.10
2019-04-22T08:45:48.086Z,67.40
2019-04-22T08:48:07.979Z,67.60
2019-04-22T08:50:48.918Z,66.40
2019-04-22T08:53:14.195Z,66.40
2019-04-22T08:55:51.940Z,65.90
2019-04-22T09:00:52.914Z,64.70
2019-04-22T09:03:18.843Z,61.30
2019-04-22T09:08:26.295Z,62.90
2019-04-22T09:10:57.088Z,62.90
2019-04-22T09:13:33.454Z,62.10
2019-04-22T09:15:59.032Z,63.70
2019-04-22T09:18:28.517Z,65.30
2019-04-22T09:21:08.558Z,64.30
2019-04-22T09:23:38.751Z,65.90
2019-04-22T09:26:03.851Z,67.00
2019-04-22T09:28:37.741Z,68.50
2019-04-22T09:31:06.621Z,66.60
2019-04-22T09:33:38.254Z,68.50
2019-04-22T09:36:17.960Z,67.10
2019-04-22T09:41:15.219Z,66.40
2019-04-22T09:43:47.119Z,66.70
2019-04-22T09:46:14.822Z,67.60
2019-04-22T09:51:15.003Z,68.30
2019-04-22T09:53:57.545Z,68.90
2019-04-22T09:56:20.795Z,69.00
2019-04-22T09:58:53.583Z,68.50
2019-04-22T10:01:32.370Z,67.90
2019-04-22T10:06:30.907Z,66.70
2019-04-22T10:11:35.043Z,63.70
2019-04-22T10:14:12.368Z,67.70
2019-04-22T10:16:37.095Z,69.50
2019-04-22T10:19:09.574Z,68.00
2019-04-22T10:21:40.707Z,66.70
2019-04-22T10:24:10.138Z,65.00
2019-04-22T10:26:39.152Z,64.40
2019-04-22T10:29:13.670Z,63.30
2019-04-22T10:34:02.621Z,64.20
2019-04-22T10:36:17.732Z,65.70
2019-04-22T10:38:48.685Z,62.90
2019-04-22T10:41:18.662Z,61.20
2019-04-22T10:43:48.336Z,59.60
2019-04-22T10:46:18.151Z,60.30
2019-04-22T10:48:48.437Z,60.60
2019-04-22T10:51:19.004Z,61.70
2019-04-22T10:53:49.376Z,66.30
2019-04-22T10:56:19.138Z,67.60
2019-04-22T10:58:48.987Z,65.60
2019-04-22T11:01:18.757Z,61.80
2019-04-22T11:03:51.170Z,64.40
2019-04-22T11:06:21.354Z,65.40
2019-04-22T11:08:57.420Z,63.50
2019-04-22T11:11:34.824Z,61.10
2019-04-22T11:13:56.015Z,59.00
2019-04-22T11:16:25.957Z,59.10
2019-04-22T11:18:55.880Z,58.40
2019-04-22T11:21:25.623Z,58.40
2019-04-22T11:23:56.521Z,58.10
2019-04-22T11:26:26.227Z,58.40
2019-04-22T11:28:56.060Z,59.20
2019-04-22T11:31:26.471Z,59.80
2019-04-22T11:33:56.707Z,59.90
2019-04-22T11:36:29.155Z,59.60
2019-04-22T11:39:02.029Z,59.80
2019-04-22T11:41:29.567Z,58.00
2019-04-22T11:44:01.306Z,56.90
2019-04-22T11:46:31.516Z,56.70
2019-04-22T11:49:01.412Z,57.10
2019-04-22T11:51:31.990Z,57.10
2019-04-22T11:54:03.006Z,56.00
2019-04-22T11:56:34.734Z,56.70
2019-04-22T11:59:06.739Z,57.40
2019-04-22T12:01:38.756Z,57.00
2019-04-22T12:04:09.719Z,58.00
2019-04-22T12:06:40.113Z,59.30
2019-04-22T12:09:12.966Z,59.00
2019-04-22T12:11:44.332Z,58.70
2019-04-22T12:14:14.255Z,59.60
2019-04-22T12:16:45.431Z,58.90
2019-04-22T12:19:15.711Z,58.10
2019-04-22T12:21:46.753Z,57.50
2019-04-22T12:24:17.227Z,57.80
2019-04-22T12:26:48.384Z,55.70
2019-04-22T12:29:18.201Z,56.20
2019-04-22T12:31:49.351Z,56.00
2019-04-22T12:34:19.624Z,55.60
2019-04-22T12:36:50.753Z,55.80
2019-04-22T12:39:21.309Z,55.20
2019-04-22T12:41:52.153Z,55.10
2019-04-22T12:44:22.224Z,55.00
2019-04-22T12:46:52.311Z,54.50
2019-04-22T12:49:22.488Z,54.40
2019-04-22T12:51:52.440Z,54.60
2019-04-22T12:54:40.142Z,55.70
2019-04-22T12:57:10.424Z,54.40
2019-04-22T12:59:41.523Z,54.10
2019-04-22T13:02:11.553Z,53.20
2019-04-22T13:04:42.218Z,53.00
2019-04-22T13:07:13.281Z,54.10
2019-04-22T13:09:43.331Z,53.50
2019-04-22T13:12:13.187Z,53.40
2019-04-22T13:14:43.408Z,53.10
2019-04-22T13:17:15.249Z,52.20
2019-04-22T13:19:44.815Z,48.60
2019-04-22T13:22:14.930Z,46.80
2019-04-22T13:24:45.817Z,44.00
2019-04-22T13:27:17.114Z,43.60
2019-04-22T13:29:46.923Z,43.50
2019-04-22T13:32:16.686Z,44.00
2019-04-22T13:34:50.324Z,44.10
2019-04-22T13:37:19.151Z,44.40
2019-04-22T13:39:49.247Z,43.70
2019-04-22T13:42:21.519Z,43.30
2019-04-22T13:44:51.794Z,43.30
2019-04-22T13:47:38.515Z,44.50
2019-04-22T13:52:54.980Z,43.10
2019-04-22T13:55:23.892Z,43.70
2019-04-22T13:57:47.567Z,43.90
2019-04-22T14:00:02.781Z,44.30
2019-04-22T14:02:50.773Z,44.60
2019-04-22T14:05:28.622Z,43.20
2019-04-22T14:08:00.782Z,42.30
2019-04-22T14:10:32.150Z,41.90
2019-04-22T14:13:02.568Z,42.40
2019-04-22T14:15:33.975Z,42.50
2019-04-22T14:18:05.167Z,41.30
2019-04-22T14:20:36.612Z,38.70
2019-04-22T14:23:07.926Z,38.70
2019-04-22T14:25:38.704Z,39.30
2019-04-22T14:28:13.647Z,40.20
2019-04-22T14:30:39.807Z,40.10
2019-04-22T14:33:09.859Z,40.70
2019-04-22T14:35:41.339Z,41.70
2019-04-22T14:38:12.252Z,42.40
2019-04-22T14:40:43.531Z,41.70
2019-04-22T14:43:37.525Z,41.80
2019-04-22T14:46:14.546Z,42.70
2019-04-22T14:48:42.144Z,42.30
2019-04-22T14:51:09.048Z,42.20
2019-04-22T14:53:41.833Z,43.10
2019-04-22T14:55:50.539Z,43.40
2019-04-22T14:58:20.398Z,44.30
2019-04-22T15:00:51.919Z,44.80
2019-04-22T15:03:21.881Z,45.00
2019-04-22T15:05:54.426Z,43.60
2019-04-22T15:08:24.829Z,43.40
2019-04-22T15:10:55.836Z,43.00
2019-04-22T15:13:27.319Z,43.20
2019-04-22T15:16:11.881Z,43.60
2019-04-22T15:18:51.661Z,43.70
2019-04-22T15:21:23.239Z,42.40
2019-04-22T15:23:52.996Z,42.10
2019-04-22T15:26:24.339Z,43.00
2019-04-22T15:28:55.491Z,43.50
2019-04-22T15:31:25.230Z,44.40
2019-04-22T15:33:56.418Z,44.40
2019-04-22T15:36:26.280Z,44.60
2019-04-22T15:38:57.543Z,45.00
2019-04-22T15:41:28.554Z,45.20
2019-04-22T15:43:59.722Z,45.40
2019-04-22T15:46:29.824Z,45.70
2019-04-22T15:49:00.013Z,44.80
2019-04-22T15:51:30.849Z,44.00
2019-04-22T15:54:01.416Z,43.80
2019-04-22T15:56:32.566Z,44.30
2019-04-22T15:59:09.855Z,44.00
2019-04-22T16:01:37.396Z,43.90
2019-04-22T16:04:05.406Z,44.10
2019-04-22T16:06:35.134Z,44.50
2019-04-22T16:09:08.884Z,44.60
2019-04-22T16:11:40.184Z,44.80
2019-04-22T16:14:10.582Z,45.20
2019-04-22T16:16:40.701Z,45.30
2019-04-22T16:19:10.455Z,45.90
2019-04-22T16:21:47.972Z,47.00
2019-04-22T16:24:29.728Z,48.00
2019-04-22T16:27:02.458Z,48.70
2019-04-22T16:29:33.663Z,48.20
2019-04-22T16:32:03.518Z,47.90
2019-04-22T16:34:34.121Z,47.00
2019-04-22T16:37:05.003Z,47.40
2019-04-22T16:39:36.448Z,47.20
2019-04-22T16:42:08.936Z,46.80
2019-04-22T16:44:38.861Z,46.40
2019-04-22T16:47:09.842Z,46.40
2019-04-22T16:49:39.654Z,44.80
2019-04-22T16:52:10.013Z,43.50
2019-04-22T16:54:40.109Z,43.50
2019-04-22T16:57:10.205Z,43.80
2019-04-22T16:59:40.398Z,42.90
2019-04-22T17:02:12.891Z,42.70
2019-04-22T17:04:50.830Z,43.20
2019-04-22T17:07:22.245Z,43.70
2019-04-22T17:09:52.324Z,43.90
2019-04-22T17:12:22.030Z,44.20
2019-04-22T17:14:56.801Z,44.50
2019-04-22T17:17:24.424Z,44.80
2019-04-22T17:19:55.578Z,45.10
2019-04-22T17:22:25.969Z,45.40
2019-04-22T17:24:56.082Z,46.20
2019-04-22T17:27:26.611Z,45.70
2019-04-22T17:29:56.961Z,45.90
2019-04-22T17:32:28.741Z,46.40
2019-04-22T17:34:59.343Z,46.80
2019-04-22T17:37:32.069Z,47.00
2019-04-22T17:40:17.965Z,46.90
2019-04-22T17:42:49.466Z,47.30
2019-04-22T17:45:47.709Z,47.20
2019-04-22T17:48:31.224Z,47.40
2019-04-22T17:51:16.169Z,47.70
2019-04-22T17:53:46.901Z,48.20
2019-04-22T17:56:14.082Z,48.60
2019-04-22T17:58:47.869Z,48.50
2019-04-22T18:01:19.351Z,49.00
2019-04-22T18:03:33.740Z,48.70
2019-04-22T18:06:04.566Z,48.90
2019-04-22T18:08:50.722Z,48.80
2019-04-22T18:11:31.903Z,49.10
2019-04-22T18:14:00.274Z,49.40
2019-04-22T18:16:26.433Z,49.00
2019-04-22T18:19:00.536Z,49.00
2019-04-22T18:21:23.174Z,49.60
2019-04-22T18:23:49.591Z,49.60
2019-04-22T18:26:30.682Z,49.80
2019-04-22T18:29:02.463Z,49.90
2019-04-22T18:31:28.633Z,49.90
2019-04-22T18:34:00.456Z,49.90
2019-04-22T18:36:36.047Z,49.70
2019-04-22T18:39:16.258Z,49.50
2019-04-22T18:41:40.616Z,49.50
2019-04-22T18:44:11.488Z,49.80
2019-04-22T18:46:42.603Z,50.00
2019-04-22T18:49:11.231Z,49.60
2019-04-22T18:51:57.303Z,49.70
2019-04-22T18:54:56.994Z,49.80
2019-04-22T18:57:29.852Z,50.10
2019-04-22T18:59:47.314Z,50.20
2019-04-22T19:02:18.046Z,49.90
2019-04-22T19:04:59.205Z,50.30
2019-04-22T19:07:42.419Z,49.90
2019-04-22T19:10:17.275Z,49.80
2019-04-22T19:13:00.418Z,48.50
2019-04-22T19:15:22.744Z,48.70
2019-04-22T19:17:54.474Z,48.20
2019-04-22T19:20:24.036Z,47.90
2019-04-22T19:22:53.497Z,47.30
2019-04-22T19:25:11.683Z,47.50
2019-04-22T19:27:48.830Z,47.20
2019-04-22T19:30:22.305Z,47.30
2019-04-22T19:32:58.595Z,47.10
2019-04-22T19:35:22.266Z,46.80
2019-04-22T19:37:54.938Z,47.20
2019-04-22T19:40:53.103Z,47.30
2019-04-22T19:43:15.526Z,46.50
2019-04-22T19:45:40.128Z,46.20
2019-04-22T19:48:30.900Z,46.60
2019-04-22T19:51:01.486Z,46.40
2019-04-22T19:53:25.856Z,46.10
2019-04-22T19:55:49.862Z,46.30
2019-04-22T19:58:27.159Z,45.90
2019-04-22T20:01:16.142Z,46.40
2019-04-22T20:04:06.363Z,46.10
2019-04-22T20:06:27.165Z,45.40
2019-04-22T20:08:59.712Z,45.40
2019-04-22T20:11:35.179Z,45.20
2019-04-22T20:14:10.336Z,45.30
2019-04-22T20:16:32.435Z,45.30
2019-04-22T20:19:12.118Z,45.20
2019-04-22T20:21:43.519Z,45.10
2019-04-22T20:24:01.101Z,45.20
2019-04-22T20:26:45.674Z,45.40
2019-04-22T20:29:20.894Z,45.20
2019-04-22T20:31:45.171Z,44.90
2019-04-22T20:34:20.932Z,44.50
2019-04-22T20:37:01.836Z,44.80
2019-04-22T20:39:20.563Z,44.80
2019-04-22T20:41:49.123Z,45.00
2019-04-22T20:44:29.165Z,44.40
2019-04-22T20:46:57.386Z,44.70
2019-04-22T20:49:31.070Z,44.70
2019-04-22T20:52:24.065Z,45.40
2019-04-22T20:54:33.341Z,44.70
2019-04-22T20:56:54.997Z,44.20
2019-04-22T20:59:33.217Z,44.50
2019-04-22T21:02:01.970Z,44.50
2019-04-22T21:04:27.798Z,44.60
2019-04-22T21:07:05.094Z,44.70
2019-04-22T21:09:38.266Z,45.00
2019-04-22T21:12:05.116Z,45.00
2019-04-22T21:14:44.182Z,44.70
2019-04-22T21:17:13.505Z,44.70
2019-04-22T21:19:58.359Z,44.60
2019-04-22T21:22:22.420Z,44.60
2019-04-22T21:24:43.549Z,45.00
2019-04-22T21:27:23.191Z,44.90
2019-04-22T21:29:48.499Z,45.00
2019-04-22T21:32:28.232Z,45.40
2019-04-22T21:34:58.504Z,45.20
2019-04-22T21:37:26.449Z,45.00
2019-04-22T21:39:51.926Z,45.40
2019-04-22T21:42:31.495Z,45.50
2019-04-22T21:44:55.730Z,45.80
2019-04-22T21:47:40.381Z,45.60
2019-04-22T21:50:21.531Z,45.80
2019-04-22T21:52:35.304Z,45.90
2019-04-22T21:55:14.475Z,45.70
2019-04-22T21:57:39.992Z,46.20
2019-04-22T22:00:22.650Z,45.90
2019-04-22T22:02:47.178Z,46.40
2019-04-22T22:05:08.117Z,45.90
2019-04-22T22:07:29.022Z,45.80
2019-04-22T22:10:16.887Z,46.20
2019-04-22T22:12:52.455Z,46.00
2019-04-22T22:15:33.829Z,45.80
2019-04-22T22:18:00.954Z,45.70
2019-04-22T22:20:30.627Z,45.70
2019-04-22T22:23:09.188Z,45.90
2019-04-22T22:25:30.123Z,46.10
2019-04-22T22:28:08.899Z,46.20
2019-04-22T22:30:47.627Z,46.30
2019-04-22T22:33:10.446Z,46.30
2019-04-22T22:35:35.996Z,46.20
2019-04-22T22:38:13.422Z,46.30
2019-04-22T22:40:27.610Z,46.50
2019-04-22T22:42:55.414Z,46.90
2019-04-22T22:45:33.739Z,46.90
2019-04-22T22:48:21.870Z,46.90
2019-04-22T22:50:47.651Z,47.20
2019-04-22T22:53:28.756Z,47.20
2019-04-22T22:55:53.257Z,47.40
2019-04-22T22:58:22.246Z,47.40
2019-04-22T23:00:50.913Z,47.70
2019-04-22T23:03:45.594Z,48.10
2019-04-22T23:05:57.436Z,48.10
2019-04-22T23:08:34.100Z,48.20
2019-04-22T23:11:05.025Z,48.40
2019-04-22T23:13:33.173Z,48.20
2019-04-22T23:15:55.619Z,48.60
2019-04-22T23:18:14.019Z,48.80
2019-04-22T23:20:47.669Z,49.00
2019-04-22T23:26:06.948Z,49.30
2019-04-22T23:28:34.921Z,49.20
2019-04-22T23:31:09.457Z,49.40
2019-04-22T23:34:04.630Z,49.30
2019-04-22T23:36:31.793Z,49.60
2019-04-22T23:39:12.184Z,49.80
2019-04-22T23:41:51.206Z,49.70
2019-04-22T23:44:24.023Z,49.70
2019-04-22T23:46:44.017Z,50.00
2019-04-22T23:49:16.239Z,50.10
2019-04-22T23:51:55.538Z,50.00
2019-04-22T23:54:25.681Z,50.00
2019-04-22T23:56:46.995Z,50.00
2019-04-22T23:59:39.470Z,50.20
